Time;durP1;ratioP1;P1;durP2;ratioP2;P2;SDS_P1;SDS_P2;PMS_P1;PMS_P2;Temp;Humidity;BMP_temperature;BMP_pressure;BME280_temperature;BME280_humidity;BME280_pressure;Samples;Min_cycle;Max_cycle;Signal;HPM_P1;HPM_P2
2022/05/21 00:02:11;;;;;;;6.07;5.30;;;17.70;20.30;;;;;;7362812;19;20007;-61
2022/05/21 00:04:44;;;;;;;5.65;5.03;;;17.70;20.30;;;;;;7383247;19;20022;-61
2022/05/21 00:07:14;;;;;;;6.57;5.05;;;17.70;20.20;;;;;;7358899;19;20011;-61
2022/05/21 00:09:45;;;;;;;5.10;4.60;;;17.60;19.80;;;;;;7357104;19;20010;-61
2022/05/21 00:12:15;;;;;;;6.05;4.90;;;17.70;19.50;;;;;;7365314;19;20021;-61
2022/05/21 00:14:45;;;;;;;5.95;4.60;;;17.70;17.90;;;;;;7370555;19;20083;-61
2022/05/21 00:17:15;;;;;;;10.25;4.57;;;17.70;16.00;;;;;;7366777;19;20078;-61
2022/05/21 00:19:47;;;;;;;4.53;4.00;;;17.60;15.80;;;;;;7386831;19;20021;-61
2022/05/21 00:22:17;;;;;;;5.50;3.63;;;17.60;15.20;;;;;;7370049;19;20014;-61
2022/05/21 00:24:47;;;;;;;7.45;3.58;;;17.50;14.40;;;;;;7367927;19;20105;-61
2022/05/21 00:27:17;;;;;;;4.63;3.80;;;17.50;13.20;;;;;;7367135;19;20015;-60
2022/05/21 00:29:47;;;;;;;4.82;3.70;;;17.40;12.90;;;;;;7365612;19;20007;-61
2022/05/21 00:32:17;;;;;;;5.68;4.10;;;17.30;13.70;;;;;;7369127;19;20019;-61
2022/05/21 00:34:50;;;;;;;6.70;4.40;;;17.30;14.20;;;;;;7390931;19;20018;-61
2022/05/21 00:37:19;;;;;;;4.63;4.10;;;17.20;14.80;;;;;;7366558;19;20017;-61
2022/05/21 00:39:49;;;;;;;9.43;4.50;;;17.20;15.10;;;;;;7364841;19;20002;-61
2022/05/21 00:42:19;;;;;;;7.20;4.47;;;17.20;16.00;;;;;;7371180;19;20094;-61
2022/05/21 00:44:49;;;;;;;4.25;3.85;;;17.20;14.70;;;;;;7369034;19;20021;-61
2022/05/21 00:47:19;;;;;;;4.72;4.20;;;17.20;14.40;;;;;;7367145;19;20019;-61
2022/05/21 00:49:52;;;;;;;4.88;4.10;;;17.20;11.70;;;;;;7386655;19;20011;-60
2022/05/21 00:52:25;;;;;;;4.35;3.95;;;17.10;11.80;;;;;;7369286;19;20005;-61
2022/05/21 00:54:59;;;;;;;5.03;4.53;;;17.10;11.80;;;;;;7367598;19;20078;-61
2022/05/21 00:57:31;;;;;;;;;;;17.10;12.60;;;;;;7368043;19;20474;-61
2022/05/21 01:00:03;;;;;;;5.93;4.85;;;16.90;13.10;;;;;;7364544;19;19917;-61
2022/05/21 01:02:39;;;;;;;8.23;4.70;;;17.00;13.30;;;;;;7371123;19;20014;-61
2022/05/21 01:05:15;;;;;;;7.15;4.78;;;16.90;14.00;;;;;;7368891;19;20021;-61
2022/05/21 01:07:47;;;;;;;8.38;4.93;;;16.90;14.00;;;;;;7390644;19;20018;-60
2022/05/21 01:10:21;;;;;;;6.63;4.95;;;17.00;14.20;;;;;;7365299;19;20022;-61
2022/05/21 01:12:55;;;;;;;6.38;4.97;;;17.10;14.10;;;;;;7368616;19;20019;-61
2022/05/21 01:15:30;;;;;;;6.40;4.78;;;17.10;14.50;;;;;;7365019;19;20052;-61
2022/05/21 01:18:00;;;;;;;7.00;4.97;;;17.00;14.70;;;;;;7368322;19;20534;-61
2022/05/21 01:20:43;;;;;;;17.45;6.10;;;16.90;15.60;;;;;;7366009;19;20091;-61
2022/05/21 01:23:16;;;;;;;5.95;5.30;;;16.90;15.60;;;;;;7368583;19;20014;-61
2022/05/21 01:25:47;;;;;;;5.30;4.60;;;16.80;15.50;;;;;;7383790;19;20436;-61
2022/05/21 01:28:20;;;;;;;4.85;4.35;;;16.80;15.10;;;;;;7364903;19;20015;-61
2022/05/21 01:30:53;;;;;;;7.90;4.32;;;16.80;13.40;;;;;;7365984;19;20044;-61
2022/05/21 01:33:26;;;;;;;7.85;4.50;;;16.70;12.30;;;;;;7367889;19;20010;-61
2022/05/21 01:35:57;;;;;;;6.45;4.78;;;16.70;11.40;;;;;;7364536;19;20012;-61
2022/05/21 01:38:32;;;;;;;6.70;4.50;;;16.70;10.80;;;;;;7364907;19;20097;-61
2022/05/21 01:41:02;;;;;;;;;;;16.60;10.50;;;;;;7367763;19;20018;-62
2022/05/21 01:46:16;;;;;;;5.75;4.47;;;16.30;11.10;;;;;;7362309;19;20018;-61
2022/05/21 01:48:47;;;;;;;8.00;4.97;;;16.30;9.90;;;;;;7362545;19;20475;-61
2022/05/21 01:51:17;;;;;;;6.38;4.40;;;16.10;11.00;;;;;;7366257;19;20013;-61
2022/05/21 01:53:50;;;;;;;5.00;4.50;;;16.00;11.30;;;;;;7368113;19;20010;-61
2022/05/21 01:56:20;;;;;;;7.20;4.90;;;16.00;11.60;;;;;;7363002;19;20082;-61
2022/05/21 01:58:49;;;;;;;6.97;5.60;;;15.90;11.30;;;;;;7385791;19;20007;-61
2022/05/21 02:01:20;;;;;;;4.68;4.20;;;15.90;11.90;;;;;;7364714;19;20085;-61
2022/05/21 02:03:50;;;;;;;5.88;4.70;;;15.70;11.80;;;;;;7366070;19;20039;-61
2022/05/21 02:06:20;;;;;;;7.40;4.95;;;15.60;11.60;;;;;;7363127;19;20017;-61
2022/05/21 02:08:53;;;;;;;5.85;4.88;;;15.50;12.30;;;;;;7365526;19;20078;-61
2022/05/21 02:11:23;;;;;;;7.57;5.00;;;15.50;12.20;;;;;;7366357;19;20086;-61
2022/05/21 02:13:53;;;;;;;7.93;4.70;;;15.40;11.50;;;;;;7389827;19;20014;-61
2022/05/21 02:16:22;;;;;;;5.10;4.40;;;15.40;11.50;;;;;;7363265;19;20010;-61
2022/05/21 02:18:52;;;;;;;5.45;4.82;;;15.40;11.50;;;;;;7361467;19;20017;-61
2022/05/21 02:21:23;;;;;;;5.85;4.75;;;15.20;11.40;;;;;;7370771;19;20014;-61
2022/05/21 02:23:55;;;;;;;5.20;4.70;;;15.20;11.30;;;;;;7368782;19;20070;-61
2022/05/21 02:26:25;;;;;;;6.43;4.78;;;15.20;10.80;;;;;;7369802;19;20022;-61
2022/05/21 02:28:55;;;;;;;6.82;4.97;;;15.20;11.30;;;;;;7393213;19;20010;-61
2022/05/21 02:31:26;;;;;;;6.32;4.93;;;15.10;11.30;;;;;;7371289;19;20081;-61
2022/05/21 02:33:56;;;;;;;8.45;5.35;;;15.00;11.80;;;;;;7370007;19;20011;-61
2022/05/21 02:41:53;;;;;;;7.18;5.15;;;14.90;11.90;;;;;;7370019;19;20006;-61
2022/05/21 02:44:23;;;;;;;5.55;4.95;;;14.70;12.00;;;;;;7387912;19;20458;-61
2022/05/21 02:46:54;;;;;;;5.75;4.82;;;14.70;12.30;;;;;;7353664;19;20003;-61
2022/05/21 02:49:24;;;;;;;5.97;5.32;;;14.60;12.00;;;;;;7369330;19;20553;-61
2022/05/21 02:51:55;;;;;;;8.23;5.28;;;14.60;12.60;;;;;;7370347;19;20010;-61
2022/05/21 02:54:27;;;;;;;5.35;4.82;;;14.50;12.40;;;;;;7370007;19;20014;-61
2022/05/21 02:56:57;;;;;;;6.38;5.07;;;14.50;12.10;;;;;;7385137;19;20070;-62
2022/05/21 02:59:27;;;;;;;5.68;4.78;;;14.50;12.60;;;;;;7391341;19;20081;-61
2022/05/21 03:01:57;;;;;;;6.75;4.63;;;14.40;11.90;;;;;;7369862;19;20086;-61
2022/05/21 03:04:28;;;;;;;5.78;4.95;;;14.30;11.80;;;;;;7368123;19;20541;-61
2022/05/21 03:06:58;;;;;;;8.18;5.18;;;14.30;12.50;;;;;;7368060;19;20019;-61
2022/05/21 03:12:13;;;;;;;8.35;4.75;;;14.20;10.60;;;;;;7369666;19;20018;-61
2022/05/21 03:14:43;;;;;;;7.78;5.43;;;14.30;10.70;;;;;;7391391;19;20078;-60
2022/05/21 03:17:13;;;;;;;7.68;5.20;;;14.10;11.10;;;;;;7368558;19;20014;-61
2022/05/21 03:19:43;;;;;;;8.82;5.90;;;14.20;10.70;;;;;;7369989;19;20010;-61
2022/05/21 03:22:13;;;;;;;6.82;5.10;;;14.10;11.20;;;;;;7369408;19;20006;-61
2022/05/21 03:24:45;;;;;;;7.32;4.75;;;14.00;10.50;;;;;;7368685;19;20025;-61
2022/05/21 03:27:15;;;;;;;7.95;5.75;;;14.00;10.70;;;;;;7367810;19;20342;-61
2022/05/21 03:29:45;;;;;;;8.15;5.13;;;13.90;10.40;;;;;;7389976;19;20017;-61
2022/05/21 03:32:15;;;;;;;6.55;4.72;;;13.90;10.00;;;;;;7368395;19;20739;-61
2022/05/21 03:34:45;;;;;;;5.93;4.85;;;13.90;9.20;;;;;;7366896;19;20020;-61
2022/05/21 03:37:15;;;;;;;7.82;5.22;;;13.90;9.00;;;;;;7367734;19;20025;-60
2022/05/21 03:39:47;;;;;;;8.30;5.18;;;13.80;9.10;;;;;;7369355;19;20006;-61
2022/05/21 03:42:17;;;;;;;8.85;5.90;;;13.90;9.10;;;;;;7368714;19;20026;-60
2022/05/21 03:44:47;;;;;;;7.78;5.47;;;13.80;8.80;;;;;;7388714;19;20011;-60
2022/05/21 03:47:17;;;;;;;8.10;5.57;;;13.70;8.90;;;;;;7365775;19;20007;-60
2022/05/21 03:49:47;;;;;;;8.23;5.25;;;13.80;9.00;;;;;;7368290;19;20003;-61
2022/05/21 03:52:16;;;;;;;7.97;5.95;;;13.80;8.80;;;;;;7366846;19;20077;-61
2022/05/21 03:54:49;;;;;;;9.23;6.85;;;13.70;8.80;;;;;;7367073;19;20172;-60
2022/05/21 03:57:19;;;;;;;8.13;6.13;;;13.70;8.80;;;;;;7367107;19;20085;-60
2022/05/21 03:59:49;;;;;;;7.70;6.10;;;13.70;9.60;;;;;;7390965;19;20065;-60
2022/05/21 04:02:22;;;;;;;10.27;6.80;;;13.70;9.30;;;;;;7368401;19;20094;-60
2022/05/21 04:04:52;;;;;;;8.05;6.38;;;13.60;9.50;;;;;;7365743;19;20519;-60
2022/05/21 04:07:22;;;;;;;11.15;7.35;;;13.90;7.50;;;;;;7365301;19;20501;-60
2022/05/21 04:09:55;;;;;;;8.93;6.97;;;14.80;1.50;;;;;;7367865;19;20037;-60
2022/05/21 04:12:25;;;;;;;7.90;6.35;;;15.40;1.00;;;;;;7368036;19;20455;-60
2022/05/21 04:14:56;;;;;;;6.93;6.22;;;15.60;1.00;;;;;;7387936;19;20018;-60
2022/05/21 04:17:25;;;;;;;9.93;6.82;;;16.20;1.00;;;;;;7367520;19;20011;-60
2022/05/21 04:19:55;;;;;;;8.10;6.10;;;15.80;1.00;;;;;;7367247;19;20090;-61
2022/05/21 04:22:25;;;;;;;7.22;5.85;;;16.10;1.00;;;;;;7368324;19;20074;-61
2022/05/21 04:24:58;;;;;;;9.02;6.03;;;16.70;1.00;;;;;;7366197;19;20015;-61
2022/05/21 04:27:28;;;;;;;10.63;6.43;;;16.30;1.00;;;;;;7367373;19;20127;-61
2022/05/21 04:29:58;;;;;;;7.50;6.70;;;16.40;1.00;;;;;;7376686;19;20028;-62
2022/05/21 04:32:28;;;;;;;10.32;6.53;;;16.50;1.00;;;;;;7389548;19;20522;-61
2022/05/21 04:34:58;;;;;;;8.95;6.95;;;16.50;1.00;;;;;;7365134;19;20042;-61
2022/05/21 04:37:27;;;;;;;11.05;7.20;;;16.70;1.00;;;;;;7366898;19;20086;-62
2022/05/21 04:40:00;;;;;;;8.30;6.70;;;17.90;1.00;;;;;;7366754;19;20498;-61
2022/05/21 04:42:30;;;;;;;8.90;7.55;;;16.00;1.00;;;;;;7371446;19;20007;-61
2022/05/21 04:45:00;;;;;;;8.48;6.90;;;16.80;1.00;;;;;;7372839;19;20081;-62
2022/05/21 04:47:30;;;;;;;7.60;6.80;;;16.70;1.00;;;;;;7394411;19;20018;-61
2022/05/21 04:50:00;;;;;;;8.63;6.25;;;17.40;1.00;;;;;;7371168;19;20074;-62
2022/05/21 04:52:30;;;;;;;8.98;6.75;;;16.60;1.00;;;;;;7373706;19;20021;-61
2022/05/21 04:55:03;;;;;;;8.15;6.70;;;17.80;1.00;;;;;;7372992;19;20086;-61
2022/05/21 04:57:33;;;;;;;8.88;6.45;;;17.90;1.00;;;;;;7373788;19;20078;-61
2022/05/21 05:00:03;;;;;;;7.25;6.07;;;18.50;1.00;;;;;;7374307;19;20070;-62
2022/05/21 05:02:33;;;;;;;7.70;6.20;;;17.20;1.00;;;;;;7396103;19;20021;-61
2022/05/21 05:05:03;;;;;;;10.02;6.20;;;18.10;1.00;;;;;;7371568;19;20006;-61
2022/05/21 05:07:34;;;;;;;8.50;5.78;;;17.80;1.00;;;;;;7372430;19;20465;-62
2022/05/21 05:10:07;;;;;;;6.65;5.43;;;18.00;1.00;;;;;;7373498;19;20401;-61
2022/05/21 05:12:37;;;;;;;6.90;5.90;;;18.50;1.00;;;;;;7373505;19;20048;-62
2022/05/21 05:15:08;;;;;;;7.55;5.68;;;18.10;1.00;;;;;;7371576;19;20014;-62
2022/05/21 05:17:38;;;;;;;6.82;5.40;;;19.40;1.00;;;;;;7394342;19;20011;-62
2022/05/21 05:20:09;;;;;;;7.18;5.47;;;19.80;1.00;;;;;;7372553;19;20046;-61
2022/05/21 05:22:39;;;;;;;7.38;5.97;;;17.20;1.00;;;;;;7372133;19;20497;-61
2022/05/21 05:25:12;;;;;;;6.38;5.65;;;18.10;1.00;;;;;;7371989;19;20006;-62
2022/05/21 05:27:42;;;;;;;6.90;5.70;;;19.50;1.00;;;;;;7372364;19;20013;-61
2022/05/21 05:30:13;;;;;;;6.30;5.70;;;19.10;1.00;;;;;;7372583;19;20458;-62
2022/05/21 05:32:43;;;;;;;6.43;5.72;;;20.10;1.00;;;;;;7394149;19;20466;-62
2022/05/21 05:35:14;;;;;;;7.18;6.07;;;19.00;1.00;;;;;;7369908;19;20017;-61
2022/05/21 05:37:48;;;;;;;7.18;5.85;;;19.00;1.00;;;;;;7371417;19;20011;-61
2022/05/21 05:40:23;;;;;;;7.80;5.30;;;17.90;1.00;;;;;;7372319;19;20082;-62
2022/05/21 05:42:53;;;;;;;6.22;5.63;;;19.30;1.00;;;;;;7372446;19;20082;-62
2022/05/21 05:45:22;;;;;;;8.85;5.45;;;18.20;1.00;;;;;;7369357;19;20451;-61
2022/05/21 05:47:53;;;;;;;8.55;6.25;;;17.80;1.00;;;;;;7392437;19;20007;-62
2022/05/21 05:50:23;;;;;;;7.03;5.97;;;17.60;1.00;;;;;;7371562;19;20018;-62
2022/05/21 05:52:53;;;;;;;6.63;5.53;;;18.20;1.00;;;;;;7371132;19;20019;-62
2022/05/21 05:55:25;;;;;;;7.80;5.90;;;17.90;1.00;;;;;;7371497;19;20017;-62
2022/05/21 05:57:55;;;;;;;9.63;5.55;;;16.90;1.00;;;;;;7370781;19;20018;-62
2022/05/21 06:00:23;;;;;;;7.25;6.18;;;16.80;1.00;;;;;;7371378;19;20013;-62
2022/05/21 06:03:02;;;;;;;8.00;5.90;;;15.90;1.00;;;;;;7393708;19;20443;-62
2022/05/21 06:05:34;;;;;;;6.40;5.80;;;15.70;1.00;;;;;;7369730;19;20014;-61
2022/05/21 06:08:07;;;;;;;6.32;5.25;;;17.50;1.00;;;;;;7369622;19;20014;-62
2022/05/21 06:10:41;;;;;;;6.97;5.30;;;19.20;1.00;;;;;;7371970;19;20049;-62
2022/05/21 06:13:11;;;;;;;7.25;4.93;;;18.30;1.00;;;;;;7371325;19;20014;-62
2022/05/21 06:15:41;;;;;;;7.68;4.70;;;18.80;1.00;;;;;;7369200;19;20010;-62
2022/05/21 06:18:13;;;;;;;10.50;5.60;;;18.10;1.00;;;;;;7370981;19;20017;-62
2022/05/21 06:20:44;;;;;;;10.80;5.20;;;17.60;1.00;;;;;;7392233;19;20018;-62
2022/05/21 06:23:15;;;;;;;8.57;5.18;;;17.40;1.00;;;;;;7370385;19;20494;-60
2022/05/21 06:25:48;;;;;;;5.82;3.80;;;18.30;1.00;;;;;;7369446;19;20006;-62
2022/05/21 06:28:18;;;;;;;4.50;3.38;;;18.00;1.00;;;;;;7369295;19;20103;-60
2022/05/21 06:30:49;;;;;;;5.47;3.30;;;18.50;1.00;;;;;;7371141;19;20470;-60
2022/05/21 06:33:21;;;;;;;7.05;3.28;;;18.10;1.00;;;;;;7370532;19;20123;-60
2022/05/21 06:36:02;;;;;;;5.50;2.83;;;19.10;1.00;;;;;;7389927;19;20057;-60
2022/05/21 06:38:32;;;;;;;5.57;2.90;;;19.00;1.00;;;;;;7370761;19;20014;-61
2022/05/21 06:41:05;;;;;;;4.35;2.72;;;17.30;1.00;;;;;;7369311;19;20086;-60
2022/05/21 06:43:35;;;;;;;2.55;2.35;;;16.70;1.00;;;;;;7369898;19;20006;-62
2022/05/21 06:46:05;;;;;;;3.33;2.60;;;17.00;1.00;;;;;;7368691;19;20006;-60
2022/05/21 06:48:35;;;;;;;3.33;2.08;;;17.20;1.00;;;;;;7369056;19;20073;-60
2022/05/21 06:51:05;;;;;;;4.82;2.28;;;17.60;1.00;;;;;;7369516;19;20025;-61
2022/05/21 06:53:37;;;;;;;5.78;2.47;;;17.00;1.00;;;;;;7391262;19;20015;-60
2022/05/21 06:56:11;;;;;;;3.03;2.13;;;16.80;1.00;;;;;;7367578;19;20018;-61
2022/05/21 06:58:41;;;;;;;2.33;1.80;;;16.80;1.00;;;;;;7369484;19;20586;-60
2022/05/21 07:01:11;;;;;;;3.08;2.40;;;17.10;1.00;;;;;;7370245;19;20553;-61
2022/05/21 07:03:42;;;;;;;4.20;2.15;;;16.80;1.00;;;;;;7370042;19;20093;-61
2022/05/21 07:08:54;;;;;;;3.50;1.70;;;17.00;1.00;;;;;;7389023;19;20010;-61
2022/05/21 07:11:27;;;;;;;4.22;1.63;;;17.40;1.00;;;;;;7369291;19;20389;-62
2022/05/21 07:13:57;;;;;;;2.33;1.70;;;17.60;1.00;;;;;;7368087;19;20014;-61
2022/05/21 07:16:27;;;;;;;2.33;1.65;;;17.40;1.00;;;;;;7369796;19;20006;-61
2022/05/21 07:18:57;;;;;;;2.13;1.55;;;17.20;1.00;;;;;;7369373;19;20016;-61
2022/05/21 07:21:28;;;;;;;3.05;1.60;;;17.60;1.00;;;;;;7368931;19;20015;-61
2022/05/21 07:23:58;;;;;;;3.53;1.40;;;18.10;1.00;;;;;;7380676;19;20028;-61
2022/05/21 07:26:30;;;;;;;2.30;1.20;;;17.90;1.00;;;;;;7390972;19;20014;-61
2022/05/21 07:29:00;;;;;;;3.70;1.48;;;17.60;1.00;;;;;;7366709;19;20025;-61
2022/05/21 07:31:30;;;;;;;2.95;1.00;;;17.60;1.00;;;;;;7368362;19;20079;-61
2022/05/21 07:33:59;;;;;;;1.70;1.02;;;17.50;1.00;;;;;;7367208;19;20011;-61
2022/05/21 07:36:29;;;;;;;0.80;0.80;;;18.10;1.00;;;;;;7368214;19;20098;-61
2022/05/21 07:38:59;;;;;;;3.42;1.30;;;17.00;1.00;;;;;;7365878;19;20021;-61
2022/05/21 07:41:31;;;;;;;1.65;1.20;;;17.50;1.00;;;;;;7389595;19;20018;-60
2022/05/21 07:44:01;;;;;;;1.67;1.10;;;17.00;1.00;;;;;;7367374;19;20018;-60
2022/05/21 07:46:31;;;;;;;4.32;1.20;;;17.10;1.00;;;;;;7368154;19;20366;-61
2022/05/21 07:49:01;;;;;;;1.67;1.13;;;17.50;1.00;;;;;;7365723;19;20017;-61
2022/05/21 07:51:32;;;;;;;2.65;1.20;;;17.00;1.00;;;;;;7368205;19;20073;-61
2022/05/21 07:54:02;;;;;;;3.10;1.50;;;17.00;1.00;;;;;;7367062;19;20466;-61
2022/05/21 07:56:34;;;;;;;2.65;0.90;;;16.70;1.00;;;;;;7389613;19;20010;-61
2022/05/21 07:59:05;;;;;;;1.70;1.00;;;17.50;1.00;;;;;;7366289;19;20114;-61
2022/05/21 08:01:34;;;;;;;2.72;0.93;;;17.80;1.00;;;;;;7366669;19;20006;-60
2022/05/21 08:04:04;;;;;;;0.88;0.68;;;18.50;1.00;;;;;;7367095;19;20081;-60
2022/05/21 08:06:34;;;;;;;3.45;1.30;;;18.20;1.00;;;;;;7367415;19;20010;-60
2022/05/21 08:09:05;;;;;;;4.13;1.33;;;18.30;1.00;;;;;;7365725;19;20082;-61
2022/05/21 08:11:37;;;;;;;5.28;1.20;;;18.50;1.00;;;;;;7389090;19;20013;-62
2022/05/21 08:14:08;;;;;;;2.22;0.73;;;18.10;1.00;;;;;;7365775;19;20040;-62
2022/05/21 08:16:38;;;;;;;2.53;1.00;;;18.30;1.00;;;;;;7369655;19;20014;-62
2022/05/21 08:19:08;;;;;;;2.85;1.00;;;18.40;1.00;;;;;;7374878;19;20090;-62
2022/05/21 08:21:38;;;;;;;1.63;1.17;;;18.30;1.00;;;;;;7374820;19;20040;-62
2022/05/21 08:27:01;;;;;;;1.92;0.80;;;18.10;1.00;;;;;;7396074;19;20125;-62
2022/05/21 08:29:35;;;;;;;1.35;0.98;;;18.10;1.00;;;;;;7372836;19;20015;-62
2022/05/21 08:32:07;;;;;;;2.13;1.10;;;18.00;1.00;;;;;;7373945;19;20056;-62
2022/05/21 08:34:37;;;;;;;3.63;1.35;;;17.90;1.00;;;;;;7371145;19;20016;-61
2022/05/21 08:37:06;;;;;;;1.85;1.00;;;18.70;1.00;;;;;;7372889;19;20010;-61
2022/05/21 08:39:37;;;;;;;2.00;1.00;;;18.10;1.00;;;;;;7373174;19;20508;-61
2022/05/21 08:42:16;;;;;;;3.10;1.10;;;17.80;1.00;;;;;;7373563;19;20082;-61
2022/05/21 08:44:48;;;;;;;3.97;1.10;;;18.40;1.00;;;;;;7394697;19;20027;-61
2022/05/21 08:47:26;;;;;;;3.55;1.00;;;18.50;1.00;;;;;;7373516;19;20007;-61
2022/05/21 08:49:59;;;;;;;1.80;1.08;;;18.40;1.00;;;;;;7369903;19;20014;-61
2022/05/21 08:52:33;;;;;;;1.55;1.00;;;17.90;1.00;;;;;;7373273;19;20033;-61
2022/05/21 08:55:06;;;;;;;;;;;18.30;1.00;;;;;;7372787;19;20090;-61
2022/05/21 08:57:45;;;;;;;3.13;1.48;;;18.40;1.00;;;;;;7373495;19;20361;-61
2022/05/21 09:00:18;;;;;;;1.70;0.93;;;18.50;1.00;;;;;;7374227;19;20006;-61
2022/05/21 09:02:48;;;;;;;1.63;1.08;;;18.30;1.00;;;;;;7395000;19;20015;-61
2022/05/21 09:05:21;;;;;;;2.13;1.05;;;19.00;1.00;;;;;;7370315;19;20073;-62
2022/05/21 09:07:58;;;;;;;1.30;0.95;;;19.30;1.00;;;;;;7370753;19;20457;-62
2022/05/21 09:10:46;;;;;;;2.40;0.98;;;18.90;1.00;;;;;;7373060;19;20018;-62
2022/05/21 09:13:22;;;;;;;3.55;1.08;;;19.40;1.00;;;;;;7372754;19;20585;-61
2022/05/21 09:18:35;;;;;;;3.53;1.30;;;19.60;1.00;;;;;;7372395;19;20017;-61
2022/05/21 09:21:10;;;;;;;3.33;1.13;;;19.40;1.00;;;;;;7372511;19;20011;-62
2022/05/21 09:23:50;;;;;;;4.38;1.60;;;18.90;1.00;;;;;;7393760;19;20467;-62
2022/05/21 09:26:21;;;;;;;2.33;0.95;;;18.80;1.00;;;;;;7371737;19;20062;-61
2022/05/21 09:28:55;;;;;;;2.25;0.90;;;18.70;1.00;;;;;;7371081;19;20017;-61
2022/05/21 09:31:32;;;;;;;2.58;1.00;;;18.90;1.00;;;;;;7368423;19;20010;-61
2022/05/21 09:34:16;;;;;;;2.88;0.95;;;19.40;1.00;;;;;;7369870;19;20264;-60
2022/05/21 09:36:46;;;;;;;2.50;1.00;;;19.30;1.00;;;;;;7370764;19;20862;-61
2022/05/21 09:39:32;;;;;;;1.77;1.13;;;19.00;1.00;;;;;;7371915;19;20020;-62
2022/05/21 09:45:21;;;;;;;2.17;0.90;;;19.50;1.00;;;;;;7372690;19;20006;-61
2022/05/21 09:45:22;;;;;;;2.60;0.80;;;19.30;1.00;;;;;;7370625;19;20408;-62
2022/05/21 09:47:53;;;;;;;1.80;0.80;;;19.10;1.00;;;;;;7393829;19;20025;-62
2022/05/21 09:50:26;;;;;;;1.48;1.02;;;19.50;1.00;;;;;;7370948;19;20077;-62
2022/05/21 09:52:56;;;;;;;5.80;0.93;;;18.90;1.00;;;;;;7371367;19;20011;-62
2022/05/21 09:55:29;;;;;;;2.97;0.90;;;19.40;1.00;;;;;;7370123;19;20066;-62
2022/05/21 09:58:10;;;;;;;5.43;1.10;;;19.30;1.00;;;;;;7371712;19;20299;-62
2022/05/21 10:00:42;;;;;;;0.80;0.60;;;20.00;1.00;;;;;;7371122;19;20566;-62
2022/05/21 10:03:13;;;;;;;3.70;1.17;;;20.10;1.00;;;;;;7370431;19;20018;-61
2022/05/21 10:05:48;;;;;;;1.70;0.80;;;20.10;1.00;;;;;;7388988;19;20038;-62
2022/05/21 10:11:20;;;;;;;2.33;1.10;;;19.20;1.00;;;;;;7369286;19;20006;-62
2022/05/21 10:13:53;;;;;;;2.47;0.80;;;19.50;1.00;;;;;;7369547;19;20027;-61
2022/05/21 10:16:34;;;;;;;1.83;1.00;;;19.70;1.00;;;;;;7369350;19;20006;-61
2022/05/21 10:19:09;;;;;;;1.67;0.93;;;19.00;1.00;;;;;;7369629;19;20027;-61
2022/05/21 10:21:50;;;;;;;4.68;1.30;;;19.30;1.00;;;;;;7369378;19;20370;-61
2022/05/21 10:24:24;;;;;;;3.35;1.00;;;19.60;1.00;;;;;;7370211;19;20021;-61
2022/05/21 10:27:07;;;;;;;1.42;0.80;;;19.90;1.00;;;;;;7392109;19;20078;-61
2022/05/21 10:29:53;;;;;;;1.58;0.82;;;19.80;1.00;;;;;;7369349;19;20033;-62
2022/05/21 10:32:44;;;;;;;3.28;0.90;;;19.40;1.00;;;;;;7369400;19;20484;-62
2022/05/21 10:35:34;;;;;;;3.80;1.10;;;19.50;1.00;;;;;;7367311;19;20018;-62
2022/05/21 10:38:10;;;;;;;1.42;0.80;;;20.00;1.00;;;;;;7369692;19;20090;-62
2022/05/21 10:40:45;;;;;;;3.10;1.00;;;19.60;1.00;;;;;;7367070;19;19998;-62
2022/05/21 10:43:41;;;;;;;3.72;1.30;;;19.30;1.00;;;;;;7369737;19;20006;-62
2022/05/21 10:46:22;;;;;;;4.75;1.40;;;19.80;1.00;;;;;;7369342;19;20014;-62
2022/05/21 10:49:17;;;;;;;2.15;0.85;;;19.20;1.00;;;;;;7367414;19;20006;-62
2022/05/21 10:51:51;;;;;;;2.47;1.00;;;19.80;1.00;;;;;;7364982;19;20448;-63
2022/05/21 10:54:40;;;;;;;2.15;1.17;;;20.40;1.00;;;;;;7362013;19;20086;-62
2022/05/21 10:57:35;;;;;;;1.48;0.70;;;19.90;1.00;;;;;;7367386;19;20081;-61
2022/05/21 11:00:10;;;;;;;1.40;0.90;;;20.20;1.00;;;;;;7359671;19;20014;-62
2022/05/21 11:03:23;;;;;;;4.38;0.90;;;20.20;1.00;;;;;;7381061;19;20014;-61
2022/05/21 11:06:19;;;;;;;2.42;0.82;;;20.70;1.00;;;;;;7256260;19;2004510;-62
2022/05/21 11:09:03;;;;;;;2.45;0.82;;;20.90;1.00;;;;;;7382562;19;20082;-61
2022/05/21 11:11:42;;;;;;;4.00;0.73;;;20.50;1.00;;;;;;7358481;19;20013;-61
2022/05/21 11:14:18;;;;;;;3.13;1.17;;;20.60;1.00;;;;;;7357499;19;20458;-61
2022/05/21 11:16:53;;;;;;;2.70;0.80;;;20.60;1.00;;;;;;7360296;19;20011;-61
2022/05/21 11:19:28;;;;;;;2.40;0.95;;;20.80;1.00;;;;;;7360641;19;20082;-61
2022/05/21 11:22:07;;;;;;;2.05;0.90;;;20.60;1.00;;;;;;7366602;19;20022;-62
2022/05/21 11:24:45;;;;;;;2.65;0.90;;;19.90;1.00;;;;;;7364847;19;20551;-62
2022/05/21 11:27:22;;;;;;;1.40;0.85;;;20.40;1.00;;;;;;7368144;19;20018;-62
2022/05/21 11:29:58;;;;;;;2.65;0.90;;;20.80;1.00;;;;;;7391273;19;20014;-62
2022/05/21 11:38:16;;;;;;;2.78;0.88;;;20.40;1.00;;;;;;7367252;19;20364;-61
2022/05/21 11:44:55;;;;;;;2.60;0.82;;;20.80;1.00;;;;;;7365615;19;20082;-61
2022/05/21 11:46:57;;;;;;;2.35;0.80;;;20.20;1.00;;;;;;7366739;19;20488;-62
2022/05/21 11:49:44;;;;;;;1.58;0.90;;;20.30;1.00;;;;;;7365770;19;20078;-61
2022/05/21 11:52:44;;;;;;;2.33;0.80;;;20.30;1.00;;;;;;7373580;19;20081;-61
2022/05/21 11:55:23;;;;;;;3.92;0.90;;;20.30;1.00;;;;;;7375565;19;20452;-62
2022/05/21 11:57:55;;;;;;;1.77;0.93;;;20.60;1.00;;;;;;7375228;19;20022;-61
2022/05/21 12:00:51;;;;;;;3.50;1.02;;;20.50;1.00;;;;;;7375658;19;20036;-60
2022/05/21 12:03:24;;;;;;;2.55;0.90;;;20.50;1.00;;;;;;7373432;19;20018;-61
2022/05/21 12:06:18;;;;;;;4.20;1.15;;;20.50;1.00;;;;;;7393181;19;20027;-62
2022/05/21 12:08:51;;;;;;;4.82;1.27;;;20.90;1.00;;;;;;7374232;19;20017;-61
2022/05/21 12:11:48;;;;;;;3.00;1.00;;;21.20;1.00;;;;;;7373964;19;20090;-61
2022/05/21 12:14:25;;;;;;;3.25;1.13;;;20.80;1.00;;;;;;7373755;19;20523;-61
2022/05/21 12:17:01;;;;;;;4.57;1.23;;;21.20;1.00;;;;;;7374199;19;20006;-61
2022/05/21 12:20:09;;;;;;;3.10;1.10;;;21.20;1.00;;;;;;7373112;19;20021;-61
2022/05/21 12:22:54;;;;;;;1.83;0.95;;;20.80;1.00;;;;;;7374056;19;20018;-61
2022/05/21 12:25:57;;;;;;;5.32;1.38;;;21.00;1.00;;;;;;7373082;19;20086;-61
2022/05/21 12:28:37;;;;;;;3.28;0.90;;;21.40;1.00;;;;;;7374586;19;20102;-61
2022/05/21 12:31:11;;;;;;;3.50;1.00;;;21.50;1.00;;;;;;7373720;19;20007;-61
2022/05/21 12:33:47;;;;;;;4.32;1.40;;;22.00;1.00;;;;;;7374384;19;20085;-62
2022/05/21 12:36:38;;;;;;;2.58;1.13;;;21.10;1.00;;;;;;7375207;19;20094;-61
2022/05/21 12:39:18;;;;;;;2.80;1.13;;;21.10;1.00;;;;;;7374740;19;20022;-62
2022/05/21 12:41:53;;;;;;;3.33;0.90;;;21.80;1.00;;;;;;7396482;19;20212;-61
2022/05/21 12:44:45;;;;;;;2.85;1.20;;;21.90;1.00;;;;;;7373180;19;20007;-61
2022/05/21 12:47:22;;;;;;;2.42;1.02;;;20.80;1.00;;;;;;7373291;19;20010;-61
2022/05/21 12:49:53;;;;;;;5.05;1.10;;;21.10;1.00;;;;;;7372702;19;20182;-61
2022/05/21 12:52:31;;;;;;;3.10;1.40;;;21.70;1.00;;;;;;7372526;19;20094;-61
2022/05/21 12:55:21;;;;;;;2.53;0.90;;;21.50;1.00;;;;;;7372207;19;20569;-61
2022/05/21 12:57:52;;;;;;;3.83;1.00;;;21.60;1.00;;;;;;7374380;19;20011;-61
2022/05/21 13:00:29;;;;;;;1.90;0.90;;;21.30;1.00;;;;;;7374371;19;20138;-61
2022/05/21 13:03:06;;;;;;;1.92;0.88;;;21.00;1.00;;;;;;7373068;19;20446;-62
2022/05/21 13:05:40;;;;;;;2.95;1.10;;;20.80;1.00;;;;;;7393032;19;20359;-60
2022/05/21 13:08:10;;;;;;;2.28;0.68;;;21.00;1.00;;;;;;7372927;19;20086;-60
2022/05/21 13:10:44;;;;;;;5.45;1.50;;;20.50;1.00;;;;;;7372485;19;20036;-60
2022/05/21 13:13:21;;;;;;;1.90;0.70;;;20.90;1.00;;;;;;7372343;19;20115;-60
2022/05/21 13:15:58;;;;;;;3.83;1.02;;;20.80;1.00;;;;;;7370131;19;20011;-60
2022/05/21 13:18:40;;;;;;;3.15;0.90;;;20.90;1.00;;;;;;7373338;19;20068;-60
2022/05/21 13:21:20;;;;;;;2.25;1.08;;;21.00;1.00;;;;;;7372884;19;20035;-61
2022/05/21 13:24:06;;;;;;;5.20;0.93;;;21.00;1.00;;;;;;7393896;19;20011;-61
2022/05/21 13:26:39;;;;;;;3.25;1.00;;;20.80;1.00;;;;;;7373136;19;20003;-60
2022/05/21 13:29:32;;;;;;;2.85;1.10;;;21.80;1.00;;;;;;7372387;19;20558;-60
2022/05/21 13:32:26;;;;;;;5.18;1.00;;;21.80;1.00;;;;;;7370627;19;20458;-61
2022/05/21 13:35:00;;;;;;;2.65;1.10;;;21.60;1.00;;;;;;7369746;19;20011;-60
2022/05/21 13:37:34;;;;;;;4.43;1.17;;;21.30;1.00;;;;;;7372686;19;20014;-60
2022/05/21 13:40:09;;;;;;;3.13;0.98;;;21.50;1.00;;;;;;7372244;19;20022;-61
2022/05/21 13:42:39;;;;;;;3.30;1.20;;;21.60;1.00;;;;;;7373265;19;20074;-61
2022/05/21 13:45:14;;;;;;;1.83;0.85;;;21.60;1.00;;;;;;7371156;19;20007;-60
2022/05/21 13:47:51;;;;;;;2.30;0.90;;;21.90;1.00;;;;;;7393934;19;20014;-60
2022/05/21 13:50:23;;;;;;;2.13;0.85;;;21.40;1.00;;;;;;7371582;19;20002;-61
2022/05/21 13:52:54;;;;;;;1.98;0.90;;;21.30;1.00;;;;;;7369713;19;20765;-61
2022/05/21 13:55:24;;;;;;;4.07;0.90;;;20.80;1.00;;;;;;7370959;19;20015;-61
2022/05/21 13:57:55;;;;;;;4.00;0.95;;;21.20;1.00;;;;;;7371143;19;20015;-60
2022/05/21 14:00:34;;;;;;;2.55;1.00;;;21.60;1.00;;;;;;7372046;19;20040;-61
2022/05/21 14:03:29;;;;;;;2.03;0.80;;;22.00;1.00;;;;;;7371348;19;20435;-61